If you wish to contribute or participate in the discussions about articles you are invited to join SKYbrary as a registered user

 Actions

Francisco De Orellana Airport

From SKYbrary Wiki

SECO
Airport
ICAO: SECO – IATA: OCC
Summary
Name Francisco De Orellana Airport
Region South America and Caribbean
Territory Ecuador EC.gif
Location , Orellana
Serving Coca
Elevation 254.203 m
834 ft
834 ft254.203 m
Type medium airport
Coordinates 0° 27' 46.39" S, 76° 59' 12.63" W
Runways
Designator Length Width Surface ROPS
15/33 2060 m6,758.53 ft
27 m88.583 ft
ASP /


METAR
Observation SECO 141500Z 09002KT 9999 SCT020 29/24 Q1012 RMK A2990
Station COCA/FRANCISCO
Date/Time 14 November 2019 15:00:00
Wind direction 90°
Wind speed 02 kts
Lowest cloud amount scattered clouds
Temperature 29°C
Dew point 24°C
Humidity 74%
QNH 1012 hPa
Weather condition n/a